createdAt,value
2022-12-04T00:03:56.967Z,2.50
2022-12-04T00:08:58.868Z,2.74
2022-12-04T00:14:06.414Z,1.37
2022-12-04T00:19:09.258Z,2.54
2022-12-04T00:24:11.179Z,3.09
2022-12-04T00:29:13.132Z,-0.25
2022-12-04T00:34:15.043Z,-2.40
2022-12-04T00:39:17.074Z,-2.80
2022-12-04T00:44:18.984Z,-2.45
2022-12-04T00:49:20.871Z,0.88
2022-12-04T00:54:22.827Z,2.07
2022-12-04T00:59:24.735Z,2.85
2022-12-04T01:04:26.712Z,3.28
2022-12-04T01:09:28.649Z,0.22
2022-12-04T01:14:30.647Z,1.04
2022-12-04T01:19:32.568Z,0.64
2022-12-04T01:24:34.464Z,0.89
2022-12-04T01:29:36.387Z,2.57
2022-12-04T01:34:38.292Z,1.82
2022-12-04T01:39:40.307Z,2.41
2022-12-04T01:44:45.150Z,2.29
2022-12-04T01:49:48.857Z,2.86
2022-12-04T01:54:56.510Z,0.42
2022-12-04T02:00:02.099Z,-1.01
2022-12-04T02:05:10.176Z,-2.11
2022-12-04T02:10:13.990Z,-1.94
2022-12-04T02:15:29.314Z,-0.58
2022-12-04T02:20:41.226Z,-1.16
2022-12-04T02:26:10.929Z,-2.18
2022-12-04T02:31:19.487Z,-1.18
2022-12-04T02:36:24.187Z,0.18
2022-12-04T02:41:35.100Z,1.51
2022-12-04T02:46:41.026Z,-0.19
2022-12-04T02:51:46.096Z,1.87
2022-12-04T02:56:51.811Z,2.21
2022-12-04T03:01:58.985Z,0.48
2022-12-04T03:07:07.568Z,2.16
2022-12-04T03:12:18.240Z,2.59
2022-12-04T03:17:27.264Z,3.02
2022-12-04T03:22:31.647Z,2.98
2022-12-04T03:27:54.606Z,3.04
2022-12-04T03:33:17.336Z,2.56
2022-12-04T03:38:41.701Z,3.18
2022-12-04T03:44:00.266Z,3.68
2022-12-04T03:49:21.490Z,3.78
2022-12-04T03:54:38.361Z,4.03
2022-12-04T04:00:06.419Z,4.08
2022-12-04T04:05:11.770Z,-1.04
2022-12-04T04:10:24.222Z,-3.15
2022-12-04T04:15:45.002Z,-2.99
2022-12-04T04:21:17.213Z,0.01
2022-12-04T04:26:19.197Z,1.76
2022-12-04T04:31:43.211Z,2.97
2022-12-04T04:37:10.917Z,1.69
2022-12-04T04:42:30.170Z,0.10
2022-12-04T04:47:38.784Z,2.58
2022-12-04T04:52:46.269Z,1.71
2022-12-04T04:57:48.250Z,2.20
2022-12-04T05:02:50.446Z,2.91
2022-12-04T05:07:52.529Z,1.48
2022-12-04T05:12:54.456Z,1.45
2022-12-04T05:17:56.366Z,1.80
2022-12-04T05:22:59.128Z,2.93
2022-12-04T05:28:01.075Z,0.12
2022-12-04T05:33:03.155Z,2.33
2022-12-04T05:38:05.054Z,1.11
2022-12-04T05:43:06.948Z,0.68
2022-12-04T05:48:08.954Z,0.70
2022-12-04T05:53:10.916Z,-0.29
2022-12-04T05:58:12.787Z,1.73
2022-12-04T06:03:14.779Z,1.33
2022-12-04T06:08:16.936Z,2.03
2022-12-04T06:13:18.911Z,3.52
2022-12-04T06:18:20.991Z,3.68
2022-12-04T06:23:22.976Z,1.54
2022-12-04T06:28:24.882Z,1.15
2022-12-04T06:33:27.094Z,1.59
2022-12-04T06:38:29.672Z,0.73
2022-12-04T06:43:31.959Z,1.80
2022-12-04T06:48:34.484Z,3.17
2022-12-04T06:53:36.967Z,3.20
2022-12-04T06:58:38.937Z,1.93
2022-12-04T07:03:43.611Z,-0.78
2022-12-04T07:08:52.539Z,-1.26
2022-12-04T07:13:54.773Z,-0.72
2022-12-04T07:18:57.389Z,-0.84
2022-12-04T07:24:01.508Z,-0.12
2022-12-04T07:29:03.463Z,1.52
2022-12-04T07:34:05.610Z,1.85
2022-12-04T07:39:07.800Z,2.28
2022-12-04T07:44:09.867Z,1.85
2022-12-04T07:49:12.914Z,-0.07
2022-12-04T07:54:14.865Z,-2.01
2022-12-04T07:59:16.867Z,1.14
2022-12-04T08:04:18.877Z,1.13
2022-12-04T08:09:20.872Z,0.88
2022-12-04T08:14:22.919Z,2.28
2022-12-04T08:19:25.502Z,1.73
2022-12-04T08:24:27.488Z,2.66
2022-12-04T08:29:29.405Z,3.39
2022-12-04T08:34:32.018Z,1.18
2022-12-04T08:39:33.998Z,-3.01
2022-12-04T08:44:35.909Z,-1.26
2022-12-04T08:49:38.031Z,-0.09
2022-12-04T08:54:40.013Z,0.45
2022-12-04T08:59:42.376Z,-0.30
2022-12-04T09:04:44.404Z,-0.84
2022-12-04T09:09:55.175Z,-2.42
2022-12-04T09:14:57.186Z,-2.59
2022-12-04T09:20:01.164Z,-0.63
2022-12-04T09:25:05.183Z,0.29
2022-12-04T09:30:09.004Z,-1.61
2022-12-04T09:35:11.018Z,-4.35
2022-12-04T09:40:32.068Z,-3.60
2022-12-04T09:45:54.985Z,-2.23
2022-12-04T09:50:57.791Z,-1.79
2022-12-04T09:56:05.830Z,-3.02
2022-12-04T10:01:21.088Z,-1.25
2022-12-04T10:06:32.508Z,-1.97
2022-12-04T10:11:53.454Z,-2.73
2022-12-04T10:17:19.097Z,-1.99
2022-12-04T10:22:33.511Z,-1.32
2022-12-04T10:28:09.608Z,-0.58
2022-12-04T10:33:32.347Z,-2.78
2022-12-04T10:38:43.781Z,0.08
2022-12-04T10:43:48.546Z,-1.14
2022-12-04T10:49:09.659Z,-3.97
2022-12-04T10:54:25.384Z,-2.96
2022-12-04T10:59:28.235Z,-4.73
2022-12-04T11:04:31.908Z,-4.14
2022-12-04T11:09:34.610Z,-0.63
2022-12-04T11:14:36.711Z,0.84
2022-12-04T11:19:38.660Z,-2.70
2022-12-04T11:24:42.888Z,0.47
2022-12-04T11:29:46.637Z,1.63
2022-12-04T11:34:51.929Z,1.77
2022-12-04T11:39:55.658Z,0.67
2022-12-04T11:45:17.987Z,0.62
2022-12-04T11:50:54.013Z,1.12
2022-12-04T11:56:25.084Z,-1.69
2022-12-04T12:02:20.851Z,1.12
2022-12-04T12:07:59.088Z,2.91
2022-12-04T12:13:09.031Z,0.95
2022-12-04T12:18:19.252Z,-1.24
2022-12-04T12:23:31.467Z,-1.54
2022-12-04T12:29:00.667Z,-1.76
2022-12-04T12:34:08.654Z,-0.85
2022-12-04T12:39:26.712Z,0.98
2022-12-04T12:45:03.664Z,-0.73
2022-12-04T12:50:22.844Z,1.80
2022-12-04T12:55:39.030Z,-1.21
2022-12-04T13:00:50.022Z,-1.28
2022-12-04T13:05:57.739Z,-1.00
2022-12-04T13:11:12.584Z,2.55
2022-12-04T13:16:36.462Z,-0.14
2022-12-04T13:21:57.220Z,-1.84
2022-12-04T13:27:11.282Z,-1.38
2022-12-04T13:32:43.428Z,-3.32
2022-12-04T13:37:57.581Z,-3.10
2022-12-04T13:43:27.749Z,-0.11
2022-12-04T13:48:33.782Z,-1.10
2022-12-04T13:53:38.003Z,1.42
2022-12-04T13:58:40.167Z,1.18
2022-12-04T14:03:55.561Z,1.12
2022-12-04T14:09:01.392Z,-0.91
2022-12-04T14:14:07.930Z,-1.89
2022-12-04T14:19:27.852Z,0.35
2022-12-04T14:24:30.531Z,2.95
2022-12-04T14:29:46.327Z,-0.90
2022-12-04T14:34:50.426Z,-1.81
2022-12-04T14:39:53.110Z,-0.72
2022-12-04T14:45:17.458Z,2.56
2022-12-04T14:50:42.420Z,3.57
2022-12-04T14:56:09.179Z,3.73
2022-12-04T15:01:29.691Z,2.36
2022-12-04T15:06:34.025Z,0.36
2022-12-04T15:12:04.992Z,0.15
2022-12-04T15:17:09.367Z,1.22
2022-12-04T15:22:28.362Z,0.99
2022-12-04T15:27:32.920Z,0.41
2022-12-04T15:32:35.274Z,-0.87
2022-12-04T15:37:37.992Z,-0.24
2022-12-04T15:42:40.078Z,2.42
2022-12-04T15:47:42.134Z,3.08
2022-12-04T15:52:56.439Z,3.81
2022-12-04T15:58:22.636Z,2.74
2022-12-04T16:03:44.786Z,3.96
2022-12-04T16:08:56.278Z,4.49
2022-12-04T16:14:16.567Z,-1.17
2022-12-04T16:19:34.367Z,2.83
2022-12-04T16:24:36.735Z,3.81
2022-12-04T16:29:39.077Z,4.33
2022-12-04T16:34:41.184Z,1.98
2022-12-04T16:39:44.004Z,1.43
2022-12-04T16:44:46.152Z,3.26
2022-12-04T16:49:50.166Z,4.48
2022-12-04T16:54:52.184Z,2.11
2022-12-04T16:59:54.366Z,0.15
2022-12-04T17:04:58.063Z,2.21
2022-12-04T17:10:00.539Z,3.29
2022-12-04T17:15:02.507Z,2.52
2022-12-04T17:20:07.504Z,2.87
2022-12-04T17:25:10.574Z,3.46
2022-12-04T17:30:13.256Z,3.64
2022-12-04T17:35:15.809Z,0.98
2022-12-04T17:40:19.313Z,2.63
2022-12-04T17:45:21.290Z,3.39
2022-12-04T17:50:23.265Z,4.08
2022-12-04T17:55:25.262Z,0.28
2022-12-04T18:00:27.320Z,-0.84
2022-12-04T18:05:29.469Z,1.50
2022-12-04T18:10:31.511Z,1.61
2022-12-04T18:15:34.802Z,1.31
2022-12-04T18:20:37.274Z,1.66
2022-12-04T18:25:39.240Z,2.46
2022-12-04T18:30:42.429Z,2.25
2022-12-04T18:35:48.774Z,1.46
2022-12-04T18:40:56.036Z,3.20
2022-12-04T18:46:07.720Z,2.68
2022-12-04T18:51:21.533Z,2.56
2022-12-04T18:56:23.627Z,2.98
2022-12-04T19:01:27.262Z,3.02
2022-12-04T19:06:41.166Z,3.65
2022-12-04T19:11:44.001Z,0.75
2022-12-04T19:16:46.586Z,2.90
2022-12-04T19:21:48.713Z,3.72
2022-12-04T19:26:53.973Z,4.56
2022-12-04T19:31:59.237Z,4.76
2022-12-04T19:37:01.896Z,1.10
2022-12-04T19:42:03.876Z,0.54
2022-12-04T19:47:05.755Z,1.51
2022-12-04T19:52:07.734Z,2.59
2022-12-04T19:57:10.030Z,3.88
2022-12-04T20:02:12.299Z,3.56
2022-12-04T20:07:14.663Z,3.68
2022-12-04T20:12:16.627Z,4.50
2022-12-04T20:17:18.634Z,4.62
2022-12-04T20:22:20.817Z,4.55
2022-12-04T20:27:22.844Z,4.48
2022-12-04T20:32:24.762Z,4.48
2022-12-04T20:37:27.133Z,4.09
2022-12-04T20:42:33.476Z,3.88
2022-12-04T20:47:36.402Z,4.16
2022-12-04T20:52:38.709Z,4.54
2022-12-04T20:57:40.662Z,3.68
2022-12-04T21:02:43.633Z,0.88
2022-12-04T21:07:45.616Z,2.54
2022-12-04T21:13:06.087Z,2.02
2022-12-04T21:18:08.154Z,4.10
2022-12-04T21:23:10.098Z,4.60
2022-12-04T21:28:12.039Z,3.93
2022-12-04T21:33:13.961Z,2.69
2022-12-04T21:38:15.883Z,3.97
2022-12-04T21:43:17.787Z,3.57
2022-12-04T21:48:19.692Z,3.49
2022-12-04T21:53:21.868Z,3.31
2022-12-04T21:58:26.085Z,2.51
2022-12-04T22:03:28.136Z,2.66
2022-12-04T22:08:30.113Z,2.79
2022-12-04T22:13:32.774Z,2.41
2022-12-04T22:18:35.098Z,3.22
2022-12-04T22:23:37.776Z,2.77
2022-12-04T22:28:40.418Z,3.54
2022-12-04T22:33:43.233Z,3.93
2022-12-04T22:39:08.780Z,2.22
2022-12-04T22:44:07.907Z,3.68
2022-12-04T22:49:09.844Z,2.09
2022-12-04T22:54:14.169Z,2.87
2022-12-04T22:59:16.078Z,3.39
2022-12-04T23:04:18.201Z,3.65
2022-12-04T23:09:20.405Z,3.50
2022-12-04T23:14:23.499Z,3.91
2022-12-04T23:19:25.574Z,3.79
2022-12-04T23:24:27.513Z,3.45
2022-12-04T23:29:52.185Z,1.52
2022-12-04T23:34:53.087Z,0.32
2022-12-04T23:39:55.222Z,0.96
2022-12-04T23:44:57.231Z,1.88
2022-12-04T23:49:59.459Z,0.84
2022-12-04T23:55:01.628Z,1.29
